createdAt,value
2022-08-25T00:00:42.294Z,19.44
2022-08-25T00:05:46.592Z,19.43
2022-08-25T00:10:59.873Z,19.11
2022-08-25T00:16:08.629Z,19.38
2022-08-25T00:21:11.111Z,19.94
2022-08-25T00:26:15.635Z,19.53
2022-08-25T00:31:23.413Z,19.12
2022-08-25T00:36:40.668Z,18.60
2022-08-25T00:41:44.425Z,19.38
2022-08-25T00:46:50.471Z,19.18
2022-08-25T00:51:56.654Z,19.42
2022-08-25T00:57:00.235Z,18.44
2022-08-25T01:02:07.575Z,18.87
2022-08-25T01:07:15.498Z,18.78
2022-08-25T01:12:21.471Z,18.56
2022-08-25T01:17:28.104Z,18.40
2022-08-25T01:22:32.191Z,19.55
2022-08-25T01:27:34.948Z,19.36
2022-08-25T01:32:37.442Z,18.85
2022-08-25T01:37:41.773Z,18.50
2022-08-25T01:42:55.773Z,19.50
2022-08-25T01:47:58.545Z,18.88
2022-08-25T01:53:07.072Z,19.60
2022-08-25T01:58:09.674Z,18.73
2022-08-25T02:03:18.556Z,18.68
2022-08-25T02:08:24.093Z,18.41
2022-08-25T02:13:31.116Z,18.04
2022-08-25T02:18:34.201Z,17.89
2022-08-25T02:23:38.238Z,18.12
2022-08-25T02:28:40.742Z,18.69
2022-08-25T02:33:43.234Z,18.60
2022-08-25T02:38:47.120Z,18.45
2022-08-25T02:43:50.729Z,18.61
2022-08-25T02:48:54.330Z,19.14
2022-08-25T02:53:59.129Z,18.78
2022-08-25T02:59:02.906Z,18.64
2022-08-25T03:04:07.264Z,19.11
2022-08-25T03:09:11.169Z,17.88
2022-08-25T03:14:13.869Z,17.75
2022-08-25T03:19:16.720Z,18.15
2022-08-25T03:24:20.557Z,18.50
2022-08-25T03:29:25.454Z,18.63
2022-08-25T03:34:30.433Z,17.89
2022-08-25T03:39:34.426Z,17.83
2022-08-25T03:44:36.972Z,18.11
2022-08-25T03:49:39.443Z,17.69
2022-08-25T03:54:43.291Z,17.78
2022-08-25T03:59:45.798Z,18.29
2022-08-25T04:04:48.669Z,18.11
2022-08-25T04:09:54.736Z,17.81
2022-08-25T04:14:57.450Z,17.95
2022-08-25T04:20:00.602Z,18.43
2022-08-25T04:25:05.865Z,18.36
2022-08-25T04:30:09.924Z,18.24
2022-08-25T04:35:12.403Z,18.83
2022-08-25T04:40:16.294Z,19.23
2022-08-25T04:45:18.989Z,19.72
2022-08-25T04:50:21.521Z,19.72
2022-08-25T04:55:25.427Z,19.43
2022-08-25T05:00:27.878Z,19.51
2022-08-25T05:05:31.082Z,19.93
2022-08-25T05:10:40.540Z,20.21
2022-08-25T05:15:54.017Z,20.14
2022-08-25T05:20:57.788Z,20.12
2022-08-25T05:26:06.962Z,20.42
2022-08-25T05:31:12.467Z,20.26
2022-08-25T05:36:17.111Z,19.64
2022-08-25T05:41:23.278Z,19.35
2022-08-25T05:46:26.184Z,20.16
2022-08-25T05:51:28.877Z,20.25
2022-08-25T05:56:32.676Z,20.34
2022-08-25T06:01:53.024Z,20.11
2022-08-25T06:06:55.713Z,21.05
2022-08-25T06:11:59.571Z,21.28
2022-08-25T06:17:03.142Z,21.44
2022-08-25T06:22:05.883Z,21.53
2022-08-25T06:27:09.667Z,21.46
2022-08-25T06:32:12.140Z,21.59
2022-08-25T06:37:14.632Z,21.55
2022-08-25T06:42:18.463Z,21.91
2022-08-25T06:47:21.114Z,21.80
2022-08-25T06:52:29.429Z,21.94
2022-08-25T06:57:35.729Z,22.44
2022-08-25T07:02:38.562Z,22.52
2022-08-25T07:07:43.097Z,23.01
2022-08-25T07:12:47.953Z,22.89
2022-08-25T07:17:50.865Z,22.39
2022-08-25T07:22:53.414Z,22.97
2022-08-25T07:27:59.050Z,22.95
2022-08-25T07:33:05.879Z,23.55
2022-08-25T07:38:10.265Z,23.89
2022-08-25T07:43:17.201Z,24.15
2022-08-25T07:48:21.583Z,23.87
2022-08-25T07:53:24.926Z,23.55
2022-08-25T07:58:30.975Z,23.83
2022-08-25T08:03:50.492Z,23.93
2022-08-25T08:08:57.804Z,24.38
2022-08-25T08:14:03.191Z,24.63
2022-08-25T08:19:06.108Z,24.13
2022-08-25T08:24:24.873Z,24.49
2022-08-25T08:29:33.517Z,24.59
2022-08-25T08:34:38.078Z,24.65
2022-08-25T08:39:41.247Z,24.67
2022-08-25T08:44:57.032Z,25.30
2022-08-25T08:50:05.901Z,25.28
2022-08-25T08:55:13.819Z,25.77
2022-08-25T09:00:18.910Z,25.73
2022-08-25T09:05:25.450Z,25.60
2022-08-25T09:10:39.172Z,26.02
2022-08-25T09:16:03.924Z,25.66
2022-08-25T09:21:15.851Z,25.47
2022-08-25T09:26:29.286Z,25.94
2022-08-25T09:31:38.694Z,26.11
2022-08-25T09:36:41.351Z,26.23
2022-08-25T09:41:51.151Z,25.74
2022-08-25T09:47:04.849Z,25.91
2022-08-25T09:52:22.223Z,26.14
2022-08-25T09:57:30.695Z,25.85
2022-08-25T10:02:34.520Z,25.67
2022-08-25T10:07:51.869Z,25.73
2022-08-25T10:12:55.080Z,26.16
2022-08-25T10:18:22.112Z,25.90
2022-08-25T10:23:28.995Z,26.98
2022-08-25T10:28:39.545Z,27.91
2022-08-25T10:33:55.599Z,28.10
2022-08-25T10:39:01.511Z,27.40
2022-08-25T10:44:29.427Z,28.16
2022-08-25T10:49:40.790Z,28.01
2022-08-25T10:54:58.510Z,29.32
2022-08-25T11:00:07.357Z,30.04
2022-08-25T11:05:24.563Z,29.14
2022-08-25T11:10:35.867Z,32.56
2022-08-25T11:16:00.179Z,28.81
2022-08-25T11:21:15.612Z,30.99
2022-08-25T11:26:28.939Z,31.98
2022-08-25T11:31:39.288Z,33.90
2022-08-25T11:36:52.055Z,32.56
2022-08-25T11:42:05.926Z,31.98
2022-08-25T11:47:32.001Z,32.81
2022-08-25T11:52:49.304Z,33.89
2022-08-25T11:58:15.031Z,34.67
2022-08-25T12:03:47.225Z,34.03
2022-08-25T12:09:20.437Z,31.65
2022-08-25T12:14:45.692Z,30.92
2022-08-25T12:19:54.891Z,29.22
2022-08-25T12:25:06.941Z,29.02
2022-08-25T12:30:20.615Z,29.90
2022-08-25T12:35:30.394Z,30.61
2022-08-25T12:40:54.173Z,32.51
2022-08-25T12:46:31.840Z,30.99
2022-08-25T12:51:57.489Z,30.48
2022-08-25T12:57:08.275Z,31.25
2022-08-25T13:02:39.853Z,30.69
2022-08-25T13:08:16.851Z,30.87
2022-08-25T13:13:34.619Z,31.79
2022-08-25T13:18:38.994Z,31.94
2022-08-25T13:23:44.597Z,31.65
2022-08-25T13:28:54.815Z,31.03
2022-08-25T13:34:00.022Z,30.82
2022-08-25T13:39:13.782Z,30.69
2022-08-25T13:44:22.413Z,31.20
2022-08-25T13:49:27.371Z,31.13
2022-08-25T13:54:40.548Z,31.00
2022-08-25T13:59:52.103Z,31.51
2022-08-25T14:04:56.412Z,30.44
2022-08-25T14:10:03.007Z,30.94
2022-08-25T14:15:27.882Z,32.08
2022-08-25T14:20:33.624Z,30.85
2022-08-25T14:25:40.660Z,29.51
2022-08-25T14:30:51.749Z,30.18
2022-08-25T14:35:59.545Z,29.56
2022-08-25T14:41:02.203Z,30.59
2022-08-25T14:46:15.429Z,30.66
2022-08-25T14:51:18.415Z,30.13
2022-08-25T14:56:20.941Z,30.59
2022-08-25T15:01:28.665Z,31.52
2022-08-25T15:06:31.843Z,31.20
2022-08-25T15:11:36.145Z,32.11
2022-08-25T15:16:45.790Z,30.75
2022-08-25T15:21:49.630Z,31.57
2022-08-25T15:32:07.009Z,31.63
2022-08-25T15:37:12.393Z,30.85
2022-08-25T15:42:16.704Z,30.66
2022-08-25T15:47:21.077Z,30.63
2022-08-25T15:52:28.173Z,29.62
2022-08-25T15:57:32.820Z,30.29
2022-08-25T16:02:36.903Z,29.82
2022-08-25T16:07:39.878Z,29.41
2022-08-25T16:12:42.602Z,29.32
2022-08-25T16:17:51.062Z,28.98
2022-08-25T16:22:53.933Z,29.18
2022-08-25T16:27:56.931Z,29.16
2022-08-25T16:33:01.257Z,28.89
2022-08-25T16:38:05.874Z,29.13
2022-08-25T16:43:08.882Z,30.05
2022-08-25T16:48:14.033Z,30.01
2022-08-25T16:53:33.975Z,29.56
2022-08-25T16:58:38.208Z,29.67
2022-08-25T17:03:44.290Z,28.94
2022-08-25T17:08:49.407Z,29.21
2022-08-25T17:13:53.915Z,29.54
2022-08-25T17:19:01.302Z,29.56
2022-08-25T17:24:05.043Z,29.43
2022-08-25T17:29:08.375Z,29.45
2022-08-25T17:34:16.351Z,29.35
2022-08-25T17:39:22.161Z,28.91
2022-08-25T17:44:26.708Z,29.02
2022-08-25T17:49:32.079Z,28.51
2022-08-25T17:54:34.582Z,28.38
2022-08-25T17:59:38.709Z,28.28
2022-08-25T18:04:44.282Z,28.04
2022-08-25T18:09:46.985Z,27.51
2022-08-25T18:14:51.665Z,27.59
2022-08-25T18:19:56.795Z,27.40
2022-08-25T18:25:01.703Z,27.50
2022-08-25T18:30:09.748Z,26.95
2022-08-25T18:35:16.736Z,27.28
2022-08-25T18:40:25.869Z,26.77
2022-08-25T18:45:33.706Z,26.54
2022-08-25T18:50:47.324Z,26.26
2022-08-25T18:55:55.493Z,26.19
2022-08-25T19:01:03.492Z,26.33
2022-08-25T19:06:09.440Z,26.98
2022-08-25T19:11:13.862Z,26.83
2022-08-25T19:16:21.338Z,26.91
2022-08-25T19:21:27.853Z,26.50
2022-08-25T19:26:30.615Z,26.25
2022-08-25T19:31:33.841Z,25.61
2022-08-25T19:36:37.866Z,25.54
2022-08-25T19:41:41.993Z,25.39
2022-08-25T19:46:50.775Z,25.83
2022-08-25T19:52:05.947Z,25.39
2022-08-25T19:57:27.713Z,25.36
2022-08-25T20:02:31.649Z,25.60
2022-08-25T20:07:36.538Z,26.01
2022-08-25T20:12:40.853Z,25.78
2022-08-25T20:17:45.082Z,25.66
2022-08-25T20:22:49.755Z,25.94
2022-08-25T20:27:57.000Z,25.72
2022-08-25T20:32:59.878Z,25.12
2022-08-25T20:38:05.242Z,25.02
2022-08-25T20:43:10.499Z,24.53
2022-08-25T20:48:14.760Z,24.66
2022-08-25T20:53:18.779Z,25.03
2022-08-25T20:58:21.602Z,24.59
2022-08-25T21:03:28.961Z,25.13
2022-08-25T21:08:34.049Z,25.41
2022-08-25T21:13:37.802Z,25.71
2022-08-25T21:18:44.213Z,25.94
2022-08-25T21:23:54.708Z,25.78
2022-08-25T21:28:59.572Z,25.40
2022-08-25T21:34:03.592Z,25.51
2022-08-25T21:39:08.485Z,24.12
2022-08-25T21:44:11.633Z,23.88
2022-08-25T21:49:14.152Z,23.67
2022-08-25T21:54:23.434Z,24.08
2022-08-25T21:59:29.903Z,23.66
2022-08-25T22:04:33.522Z,23.64
2022-08-25T22:09:37.485Z,23.16
2022-08-25T22:14:40.401Z,24.24
2022-08-25T22:19:43.185Z,24.79
2022-08-25T22:24:52.804Z,24.94
2022-08-25T22:29:55.572Z,25.05
2022-08-25T22:34:58.959Z,25.23
2022-08-25T22:40:07.041Z,25.22
2022-08-25T22:45:13.974Z,25.15
2022-08-25T22:50:17.413Z,25.11
2022-08-25T22:55:22.269Z,25.12
2022-08-25T23:00:25.341Z,24.96
2022-08-25T23:05:36.682Z,23.85
2022-08-25T23:10:57.666Z,23.92
2022-08-25T23:16:13.539Z,24.49
2022-08-25T23:21:38.227Z,23.53
2022-08-25T23:26:58.939Z,22.28
2022-08-25T23:32:03.799Z,22.20
2022-08-25T23:37:14.917Z,23.41
2022-08-25T23:42:25.059Z,23.80
2022-08-25T23:47:34.401Z,23.25
2022-08-25T23:52:38.071Z,21.96
2022-08-25T23:57:51.548Z,21.38
